sensor_id;sensor_type;location;lat;lon;timestamp;pressure;altitude;pressure_sealevel;temperature;humidity
57594;BME280;43423;46.510;6.686;2023-02-04T00:00:22;98011.44;;;5.16;66.07
57594;BME280;43423;46.510;6.686;2023-02-04T00:03:07;98016.94;;;5.09;66.37
57594;BME280;43423;46.510;6.686;2023-02-04T00:05:33;98015.41;;;5.04;67.24
57594;BME280;43423;46.510;6.686;2023-02-04T00:07:58;98003.75;;;5.04;67.46
57594;BME280;43423;46.510;6.686;2023-02-04T00:10:24;98003.84;;;4.93;67.54
57594;BME280;43423;46.510;6.686;2023-02-04T00:12:49;98010.13;;;4.87;67.65
57594;BME280;43423;46.510;6.686;2023-02-04T00:15:15;98030.69;;;4.95;67.53
57594;BME280;43423;46.510;6.686;2023-02-04T00:17:40;98017.88;;;4.92;67.22
57594;BME280;43423;46.510;6.686;2023-02-04T00:20:06;98010.50;;;4.89;67.82
57594;BME280;43423;46.510;6.686;2023-02-04T00:22:32;98004.75;;;4.80;68.25
57594;BME280;43423;46.510;6.686;2023-02-04T00:24:58;98006.28;;;4.84;68.03
57594;BME280;43423;46.510;6.686;2023-02-04T00:27:23;97993.41;;;4.85;67.66
57594;BME280;43423;46.510;6.686;2023-02-04T00:29:49;97993.88;;;4.76;68.39
57594;BME280;43423;46.510;6.686;2023-02-04T00:32:14;97999.75;;;4.74;67.86
57594;BME280;43423;46.510;6.686;2023-02-04T00:34:40;97995.53;;;4.66;68.69
57594;BME280;43423;46.510;6.686;2023-02-04T00:37:05;97992.00;;;4.69;68.71
57594;BME280;43423;46.510;6.686;2023-02-04T00:39:31;97989.22;;;4.73;68.42
57594;BME280;43423;46.510;6.686;2023-02-04T00:41:57;97998.56;;;4.75;68.06
57594;BME280;43423;46.510;6.686;2023-02-04T00:44:22;97993.53;;;4.70;68.46
57594;BME280;43423;46.510;6.686;2023-02-04T00:46:48;97985.00;;;4.68;68.57
57594;BME280;43423;46.510;6.686;2023-02-04T00:49:13;97977.19;;;4.70;68.72
57594;BME280;43423;46.510;6.686;2023-02-04T00:51:40;97972.97;;;4.62;69.35
57594;BME280;43423;46.510;6.686;2023-02-04T00:54:11;97962.84;;;4.66;69.35
57594;BME280;43423;46.510;6.686;2023-02-04T00:56:36;97964.38;;;4.67;69.16
57594;BME280;43423;46.510;6.686;2023-02-04T00:59:02;97966.13;;;4.43;70.84
57594;BME280;43423;46.510;6.686;2023-02-04T01:01:27;97965.19;;;4.61;69.75
57594;BME280;43423;46.510;6.686;2023-02-04T01:03:54;97958.22;;;4.60;69.90
57594;BME280;43423;46.510;6.686;2023-02-04T01:06:19;97950.34;;;4.65;69.35
57594;BME280;43423;46.510;6.686;2023-02-04T01:08:45;97960.59;;;4.54;69.64
57594;BME280;43423;46.510;6.686;2023-02-04T01:11:11;97966.91;;;4.44;70.58
57594;BME280;43423;46.510;6.686;2023-02-04T01:13:36;97958.22;;;4.56;69.34
57594;BME280;43423;46.510;6.686;2023-02-04T01:16:01;97963.66;;;4.60;69.96
57594;BME280;43423;46.510;6.686;2023-02-04T01:18:27;97975.66;;;4.66;69.69
57594;BME280;43423;46.510;6.686;2023-02-04T01:20:52;97981.50;;;4.68;68.21
57594;BME280;43423;46.510;6.686;2023-02-04T01:23:18;97993.19;;;4.65;68.82
57594;BME280;43423;46.510;6.686;2023-02-04T01:25:43;97989.22;;;4.76;69.05
57594;BME280;43423;46.510;6.686;2023-02-04T01:28:10;97986.16;;;4.67;69.64
57594;BME280;43423;46.510;6.686;2023-02-04T01:30:35;97978.38;;;4.69;69.32
57594;BME280;43423;46.510;6.686;2023-02-04T01:33:01;97969.78;;;4.71;69.64
57594;BME280;43423;46.510;6.686;2023-02-04T01:35:27;97974.81;;;4.76;69.42
57594;BME280;43423;46.510;6.686;2023-02-04T01:37:52;97971.63;;;4.81;69.23
57594;BME280;43423;46.510;6.686;2023-02-04T01:40:18;97970.50;;;4.79;69.23
57594;BME280;43423;46.510;6.686;2023-02-04T01:42:44;97965.03;;;4.79;69.40
57594;BME280;43423;46.510;6.686;2023-02-04T01:45:09;97976.00;;;4.71;69.54
57594;BME280;43423;46.510;6.686;2023-02-04T01:47:36;97964.28;;;4.78;68.75
57594;BME280;43423;46.510;6.686;2023-02-04T01:50:02;97975.06;;;4.89;68.36
57594;BME280;43423;46.510;6.686;2023-02-04T01:52:33;97972.34;;;4.89;68.26
57594;BME280;43423;46.510;6.686;2023-02-04T01:54:59;97967.75;;;4.82;68.49
57594;BME280;43423;46.510;6.686;2023-02-04T01:57:25;97970.06;;;4.84;68.61
57594;BME280;43423;46.510;6.686;2023-02-04T01:59:53;97971.25;;;4.83;68.88
57594;BME280;43423;46.510;6.686;2023-02-04T02:05:09;97974.09;;;4.68;69.02
57594;BME280;43423;46.510;6.686;2023-02-04T02:07:35;97964.53;;;4.46;70.69
57594;BME280;43423;46.510;6.686;2023-02-04T02:10:05;97958.28;;;4.49;70.87
57594;BME280;43423;46.510;6.686;2023-02-04T02:12:31;97963.72;;;4.49;70.98
57594;BME280;43423;46.510;6.686;2023-02-04T02:14:58;97947.78;;;4.47;70.85
57594;BME280;43423;46.510;6.686;2023-02-04T02:17:24;97942.44;;;4.37;71.24
57594;BME280;43423;46.510;6.686;2023-02-04T02:19:49;97939.84;;;4.15;72.91
57594;BME280;43423;46.510;6.686;2023-02-04T02:22:31;97942.88;;;4.28;71.95
57594;BME280;43423;46.510;6.686;2023-02-04T02:24:59;97933.56;;;4.26;72.00
57594;BME280;43423;46.510;6.686;2023-02-04T02:27:25;97934.41;;;4.15;72.27
57594;BME280;43423;46.510;6.686;2023-02-04T02:29:50;97936.72;;;4.20;72.04
57594;BME280;43423;46.510;6.686;2023-02-04T02:32:17;97938.63;;;4.24;72.10
57594;BME280;43423;46.510;6.686;2023-02-04T02:34:43;97938.94;;;4.33;71.56
57594;BME280;43423;46.510;6.686;2023-02-04T02:37:10;97931.97;;;4.32;72.00
57594;BME280;43423;46.510;6.686;2023-02-04T02:39:38;97938.03;;;4.50;71.20
57594;BME280;43423;46.510;6.686;2023-02-04T02:42:05;97931.03;;;4.53;71.69
57594;BME280;43423;46.510;6.686;2023-02-04T02:44:31;97927.94;;;4.47;72.59
57594;BME280;43423;46.510;6.686;2023-02-04T02:46:57;97924.03;;;4.48;71.65
57594;BME280;43423;46.510;6.686;2023-02-04T02:49:23;97931.03;;;4.53;71.73
57594;BME280;43423;46.510;6.686;2023-02-04T02:51:50;97931.81;;;4.49;72.16
57594;BME280;43423;46.510;6.686;2023-02-04T02:54:22;97924.81;;;4.52;72.30
57594;BME280;43423;46.510;6.686;2023-02-04T02:56:49;97930.25;;;4.52;73.37
57594;BME280;43423;46.510;6.686;2023-02-04T02:59:16;97930.25;;;4.52;73.65
57594;BME280;43423;46.510;6.686;2023-02-04T03:01:42;97927.84;;;4.58;73.41
57594;BME280;43423;46.510;6.686;2023-02-04T03:04:09;97927.19;;;4.46;73.40
57594;BME280;43423;46.510;6.686;2023-02-04T03:06:35;97928.72;;;4.51;73.55
57594;BME280;43423;46.510;6.686;2023-02-04T03:09:01;97928.00;;;4.43;74.24
57594;BME280;43423;46.510;6.686;2023-02-04T03:11:27;97927.91;;;4.54;73.85
57594;BME280;43423;46.510;6.686;2023-02-04T03:13:55;97927.84;;;4.61;73.45
57594;BME280;43423;46.510;6.686;2023-02-04T03:16:21;97923.16;;;4.62;73.06
57594;BME280;43423;46.510;6.686;2023-02-04T03:18:48;97923.94;;;4.62;73.70
57594;BME280;43423;46.510;6.686;2023-02-04T03:21:14;97924.63;;;4.70;73.81
57594;BME280;43423;46.510;6.686;2023-02-04T03:23:39;97917.25;;;4.70;74.71
57594;BME280;43423;46.510;6.686;2023-02-04T03:26:05;97916.06;;;4.71;73.76
57594;BME280;43423;46.510;6.686;2023-02-04T03:28:31;97917.59;;;4.76;74.13
57594;BME280;43423;46.510;6.686;2023-02-04T03:30:57;97902.06;;;4.69;73.19
57594;BME280;43423;46.510;6.686;2023-02-04T03:33:24;97909.13;;;4.63;75.33
57594;BME280;43423;46.510;6.686;2023-02-04T03:35:52;97906.00;;;4.65;74.41
57594;BME280;43423;46.510;6.686;2023-02-04T03:38:18;97910.97;;;4.73;74.35
57594;BME280;43423;46.510;6.686;2023-02-04T03:40:45;97909.84;;;4.71;74.20
57594;BME280;43423;46.510;6.686;2023-02-04T03:43:10;97906.28;;;4.78;74.48
57594;BME280;43423;46.510;6.686;2023-02-04T03:45:36;97921.06;;;4.76;74.42
57594;BME280;43423;46.510;6.686;2023-02-04T03:48:01;97908.59;;;4.79;73.88
57594;BME280;43423;46.510;6.686;2023-02-04T03:50:27;97913.63;;;4.81;73.54
57594;BME280;43423;46.510;6.686;2023-02-04T03:52:53;97898.81;;;4.82;74.18
57594;BME280;43423;46.510;6.686;2023-02-04T03:55:19;97888.63;;;4.89;74.22
57594;BME280;43423;46.510;6.686;2023-02-04T03:57:44;97891.75;;;4.91;73.83
57594;BME280;43423;46.510;6.686;2023-02-04T04:00:11;97895.19;;;4.95;74.27
57594;BME280;43423;46.510;6.686;2023-02-04T04:02:36;97888.97;;;4.95;73.80
57594;BME280;43423;46.510;6.686;2023-02-04T04:05:02;97884.00;;;4.86;74.19
57594;BME280;43423;46.510;6.686;2023-02-04T04:07:27;97887.84;;;4.89;73.91
57594;BME280;43423;46.510;6.686;2023-02-04T04:09:53;97879.31;;;4.87;73.53
57594;BME280;43423;46.510;6.686;2023-02-04T04:12:19;97875.41;;;4.88;73.53
57594;BME280;43423;46.510;6.686;2023-02-04T04:14:44;97864.97;;;4.83;73.38
57594;BME280;43423;46.510;6.686;2023-02-04T04:17:10;97853.31;;;4.79;74.39
57594;BME280;43423;46.510;6.686;2023-02-04T04:19:36;97847.56;;;4.69;74.48
57594;BME280;43423;46.510;6.686;2023-02-04T04:22:01;97859.31;;;4.66;73.92
57594;BME280;43423;46.510;6.686;2023-02-04T04:24:27;97848.72;;;4.72;73.71
57594;BME280;43423;46.510;6.686;2023-02-04T04:26:52;97854.75;;;4.53;74.70
57594;BME280;43423;46.510;6.686;2023-02-04T04:29:18;97846.28;;;4.43;74.66
57594;BME280;43423;46.510;6.686;2023-02-04T04:31:43;97849.38;;;4.45;74.79
57594;BME280;43423;46.510;6.686;2023-02-04T04:34:09;97854.47;;;4.43;74.86
57594;BME280;43423;46.510;6.686;2023-02-04T04:36:35;97859.56;;;4.38;75.30
57594;BME280;43423;46.510;6.686;2023-02-04T04:39:01;97877.38;;;4.46;74.43
57594;BME280;43423;46.510;6.686;2023-02-04T04:41:27;97870.22;;;4.63;72.78
57594;BME280;43423;46.510;6.686;2023-02-04T04:43:52;97868.59;;;4.69;72.93
57594;BME280;43423;46.510;6.686;2023-02-04T04:46:18;97869.38;;;4.69;72.47
57594;BME280;43423;46.510;6.686;2023-02-04T04:48:43;97871.94;;;4.46;73.07
57594;BME280;43423;46.510;6.686;2023-02-04T04:51:09;97870.50;;;4.31;73.20
57594;BME280;43423;46.510;6.686;2023-02-04T04:53:34;97874.66;;;4.46;72.13
57594;BME280;43423;46.510;6.686;2023-02-04T04:56:00;97874.56;;;4.57;71.88
57594;BME280;43423;46.510;6.686;2023-02-04T04:58:25;97885.38;;;4.64;72.14
57594;BME280;43423;46.510;6.686;2023-02-04T05:00:51;97886.22;;;4.57;72.56
57594;BME280;43423;46.510;6.686;2023-02-04T05:03:16;97873.34;;;4.61;72.19
57594;BME280;43423;46.510;6.686;2023-02-04T05:05:42;97881.53;;;4.61;72.11
57594;BME280;43423;46.510;6.686;2023-02-04T05:08:08;97887.31;;;4.67;72.27
57594;BME280;43423;46.510;6.686;2023-02-04T05:10:40;97891.16;;;4.69;72.43
57594;BME280;43423;46.510;6.686;2023-02-04T05:13:06;97892.34;;;4.68;72.28
57594;BME280;43423;46.510;6.686;2023-02-04T05:15:32;97894.31;;;4.64;72.02
57594;BME280;43423;46.510;6.686;2023-02-04T05:17:57;97877.22;;;4.64;72.27
57594;BME280;43423;46.510;6.686;2023-02-04T05:20:24;97893.13;;;4.69;72.15
57594;BME280;43423;46.510;6.686;2023-02-04T05:22:49;97884.47;;;4.78;72.13
57594;BME280;43423;46.510;6.686;2023-02-04T05:25:15;97887.97;;;4.78;72.50
57594;BME280;43423;46.510;6.686;2023-02-04T05:27:44;97888.75;;;4.79;72.18
57594;BME280;43423;46.510;6.686;2023-02-04T05:30:11;97884.03;;;4.83;71.75
57594;BME280;43423;46.510;6.686;2023-02-04T05:32:37;97881.31;;;4.83;72.36
57594;BME280;43423;46.510;6.686;2023-02-04T05:35:03;97880.38;;;4.59;72.92
57594;BME280;43423;46.510;6.686;2023-02-04T05:37:29;97879.88;;;4.71;71.82
57594;BME280;43423;46.510;6.686;2023-02-04T05:39:54;97889.56;;;4.75;72.35
57594;BME280;43423;46.510;6.686;2023-02-04T05:42:20;97888.38;;;4.76;72.91
57594;BME280;43423;46.510;6.686;2023-02-04T05:44:45;97888.03;;;4.74;73.33
57594;BME280;43423;46.510;6.686;2023-02-04T05:47:11;97892.47;;;4.54;74.92
57594;BME280;43423;46.510;6.686;2023-02-04T05:49:36;97906.75;;;4.69;74.05
57594;BME280;43423;46.510;6.686;2023-02-04T05:52:02;97909.00;;;4.78;73.80
57594;BME280;43423;46.510;6.686;2023-02-04T05:54:28;97903.91;;;4.80;73.85
57594;BME280;43423;46.510;6.686;2023-02-04T05:56:53;97892.66;;;4.78;73.88
57594;BME280;43423;46.510;6.686;2023-02-04T05:59:19;97908.09;;;4.88;73.16
57594;BME280;43423;46.510;6.686;2023-02-04T06:01:44;97904.59;;;4.91;73.43
57594;BME280;43423;46.510;6.686;2023-02-04T06:04:10;97909.28;;;4.90;74.47
57594;BME280;43423;46.510;6.686;2023-02-04T06:06:35;97907.75;;;4.86;74.36
57594;BME280;43423;46.510;6.686;2023-02-04T06:09:01;97901.16;;;4.83;74.60
57594;BME280;43423;46.510;6.686;2023-02-04T06:11:27;97909.63;;;4.92;74.77
57594;BME280;43423;46.510;6.686;2023-02-04T06:13:52;97904.97;;;4.89;74.49
57594;BME280;43423;46.510;6.686;2023-02-04T06:16:18;97903.41;;;4.92;74.81
57594;BME280;43423;46.510;6.686;2023-02-04T06:18:43;97899.03;;;5.01;74.19
57594;BME280;43423;46.510;6.686;2023-02-04T06:21:09;97898.72;;;4.92;75.13
57594;BME280;43423;46.510;6.686;2023-02-04T06:23:34;97905.03;;;4.86;75.68
57594;BME280;43423;46.510;6.686;2023-02-04T06:26:01;97911.22;;;4.90;75.33
57594;BME280;43423;46.510;6.686;2023-02-04T06:28:26;97913.13;;;4.93;74.57
57594;BME280;43423;46.510;6.686;2023-02-04T06:30:52;97919.31;;;4.97;75.38
57594;BME280;43423;46.510;6.686;2023-02-04T06:33:17;97932.88;;;5.04;75.01
57594;BME280;43423;46.510;6.686;2023-02-04T06:35:43;97926.00;;;4.92;75.58
57594;BME280;43423;46.510;6.686;2023-02-04T06:38:08;97924.41;;;4.95;75.06
57594;BME280;43423;46.510;6.686;2023-02-04T06:40:34;97927.06;;;5.02;76.14
57594;BME280;43423;46.510;6.686;2023-02-04T06:42:59;97936.75;;;5.07;76.00
57594;BME280;43423;46.510;6.686;2023-02-04T06:45:25;97932.06;;;5.07;75.69
57594;BME280;43423;46.510;6.686;2023-02-04T06:47:50;97937.06;;;5.12;75.03
57594;BME280;43423;46.510;6.686;2023-02-04T06:50:16;97935.50;;;5.11;76.22
57594;BME280;43423;46.510;6.686;2023-02-04T06:52:44;97938.22;;;5.15;75.24
57594;BME280;43423;46.510;6.686;2023-02-04T06:55:12;97942.13;;;5.14;75.32
57594;BME280;43423;46.510;6.686;2023-02-04T06:57:38;97943.97;;;5.20;75.65
57594;BME280;43423;46.510;6.686;2023-02-04T07:00:05;97940.09;;;5.21;75.30
57594;BME280;43423;46.510;6.686;2023-02-04T07:02:30;97945.91;;;5.23;76.70
57594;BME280;43423;46.510;6.686;2023-02-04T07:04:56;97939.31;;;5.21;77.06
57594;BME280;43423;46.510;6.686;2023-02-04T07:07:22;97948.28;;;5.21;76.04
57594;BME280;43423;46.510;6.686;2023-02-04T07:09:47;97952.09;;;5.27;76.83
57594;BME280;43423;46.510;6.686;2023-02-04T07:12:13;97953.69;;;5.25;77.09
57594;BME280;43423;46.510;6.686;2023-02-04T07:14:38;97963.38;;;5.29;76.81
57594;BME280;43423;46.510;6.686;2023-02-04T07:17:04;97964.53;;;5.32;77.27
57594;BME280;43423;46.510;6.686;2023-02-04T07:19:29;97961.75;;;5.36;76.61
57594;BME280;43423;46.510;6.686;2023-02-04T07:21:55;97971.16;;;5.31;77.35
57594;BME280;43423;46.510;6.686;2023-02-04T07:24:22;97968.66;;;5.44;76.79
57594;BME280;43423;46.510;6.686;2023-02-04T07:26:48;97968.63;;;5.47;76.51
57594;BME280;43423;46.510;6.686;2023-02-04T07:29:13;97978.31;;;5.52;75.77
57594;BME280;43423;46.510;6.686;2023-02-04T07:31:38;97974.78;;;5.55;75.42
57594;BME280;43423;46.510;6.686;2023-02-04T07:34:04;97973.97;;;5.58;76.27
57594;BME280;43423;46.510;6.686;2023-02-04T07:36:30;97974.69;;;5.62;76.45
57594;BME280;43423;46.510;6.686;2023-02-04T07:38:55;97975.41;;;5.66;75.89
57594;BME280;43423;46.510;6.686;2023-02-04T07:41:21;97976.06;;;5.77;76.63
57594;BME280;43423;46.510;6.686;2023-02-04T07:43:46;97964.00;;;5.75;76.16
57594;BME280;43423;46.510;6.686;2023-02-04T07:46:12;97968.97;;;5.83;76.98
57594;BME280;43423;46.510;6.686;2023-02-04T07:48:38;97971.63;;;5.91;76.37
57594;BME280;43423;46.510;6.686;2023-02-04T07:51:03;97965.75;;;5.92;76.14
57594;BME280;43423;46.510;6.686;2023-02-04T07:53:29;97964.19;;;5.95;76.42
57594;BME280;43423;46.510;6.686;2023-02-04T07:55:54;97966.28;;;6.10;76.14
57594;BME280;43423;46.510;6.686;2023-02-04T07:58:20;97962.81;;;6.10;75.62
57594;BME280;43423;46.510;6.686;2023-02-04T08:00:46;97969.03;;;6.10;77.03
57594;BME280;43423;46.510;6.686;2023-02-04T08:03:12;97977.50;;;6.16;77.08
57594;BME280;43423;46.510;6.686;2023-02-04T08:05:37;97980.16;;;6.23;76.96
57594;BME280;43423;46.510;6.686;2023-02-04T08:08:03;97979.09;;;6.17;79.28
57594;BME280;43423;46.510;6.686;2023-02-04T08:10:29;97979.34;;;6.26;78.06
57594;BME280;43423;46.510;6.686;2023-02-04T08:12:54;97977.31;;;6.30;78.84
57594;BME280;43423;46.510;6.686;2023-02-04T08:15:20;97982.69;;;6.37;79.09
57594;BME280;43423;46.510;6.686;2023-02-04T08:17:45;97981.09;;;6.40;79.10
57594;BME280;43423;46.510;6.686;2023-02-04T08:20:11;97981.44;;;6.42;79.90
57594;BME280;43423;46.510;6.686;2023-02-04T08:22:37;97980.25;;;6.43;79.79
57594;BME280;43423;46.510;6.686;2023-02-04T08:25:03;97982.81;;;6.54;80.66
57594;BME280;43423;46.510;6.686;2023-02-04T08:27:30;97981.38;;;6.72;79.80
57594;BME280;43423;46.510;6.686;2023-02-04T08:29:55;97984.88;;;6.96;79.40
57594;BME280;43423;46.510;6.686;2023-02-04T08:32:21;97987.50;;;7.23;78.65
57594;BME280;43423;46.510;6.686;2023-02-04T08:34:47;97980.16;;;7.40;79.61
57594;BME280;43423;46.510;6.686;2023-02-04T08:37:13;97986.97;;;7.52;78.45
57594;BME280;43423;46.510;6.686;2023-02-04T08:39:39;97986.75;;;7.63;77.58
57594;BME280;43423;46.510;6.686;2023-02-04T08:42:08;97985.16;;;7.45;77.19
57594;BME280;43423;46.510;6.686;2023-02-04T08:44:34;97982.13;;;7.20;75.64
57594;BME280;43423;46.510;6.686;2023-02-04T08:47:00;97998.53;;;7.20;76.39
57594;BME280;43423;46.510;6.686;2023-02-04T08:49:25;98003.59;;;6.98;76.67
57594;BME280;43423;46.510;6.686;2023-02-04T08:51:51;97994.06;;;7.06;77.58
57594;BME280;43423;46.510;6.686;2023-02-04T08:54:16;98001.44;;;7.09;77.50
57594;BME280;43423;46.510;6.686;2023-02-04T08:56:42;97998.56;;;7.16;77.43
57594;BME280;43423;46.510;6.686;2023-02-04T08:59:08;97999.72;;;7.19;77.22
57594;BME280;43423;46.510;6.686;2023-02-04T09:01:33;98007.97;;;7.15;76.55
57594;BME280;43423;46.510;6.686;2023-02-04T09:03:59;98005.72;;;6.87;75.83
57594;BME280;43423;46.510;6.686;2023-02-04T09:06:24;98007.41;;;6.81;76.95
57594;BME280;43423;46.510;6.686;2023-02-04T09:08:50;98005.84;;;6.80;77.44
57594;BME280;43423;46.510;6.686;2023-02-04T09:11:15;98004.72;;;6.77;77.11
57594;BME280;43423;46.510;6.686;2023-02-04T09:13:41;98012.44;;;6.82;77.55
57594;BME280;43423;46.510;6.686;2023-02-04T09:16:06;98011.25;;;6.83;77.26
57594;BME280;43423;46.510;6.686;2023-02-04T09:18:32;98010.72;;;6.92;76.34
57594;BME280;43423;46.510;6.686;2023-02-04T09:20:58;98017.19;;;7.02;77.58
57594;BME280;43423;46.510;6.686;2023-02-04T09:23:23;98024.16;;;7.06;77.54
57594;BME280;43423;46.510;6.686;2023-02-04T09:25:50;98016.31;;;7.08;77.58
57594;BME280;43423;46.510;6.686;2023-02-04T09:28:15;98015.75;;;7.17;76.79
57594;BME280;43423;46.510;6.686;2023-02-04T09:30:42;98018.44;;;7.20;77.35
57594;BME280;43423;46.510;6.686;2023-02-04T09:33:09;98027.66;;;7.30;77.56
57594;BME280;43423;46.510;6.686;2023-02-04T09:35:36;98036.50;;;7.38;77.57
57594;BME280;43423;46.510;6.686;2023-02-04T09:38:02;98027.81;;;7.43;77.25
57594;BME280;43423;46.510;6.686;2023-02-04T09:40:30;98037.19;;;7.42;76.98
57594;BME280;43423;46.510;6.686;2023-02-04T09:42:58;98040.31;;;7.44;76.77
57594;BME280;43423;46.510;6.686;2023-02-04T09:45:26;98032.03;;;7.47;76.89
57594;BME280;43423;46.510;6.686;2023-02-04T09:47:53;98037.03;;;7.52;77.98
57594;BME280;43423;46.510;6.686;2023-02-04T09:50:23;98037.66;;;7.60;77.56
57594;BME280;43423;46.510;6.686;2023-02-04T09:52:50;98042.75;;;7.58;77.35
57594;BME280;43423;46.510;6.686;2023-02-04T09:55:20;98045.44;;;7.62;77.00
57594;BME280;43423;46.510;6.686;2023-02-04T09:57:47;98044.50;;;7.28;74.81
57594;BME280;43423;46.510;6.686;2023-02-04T10:00:20;98036.94;;;7.36;75.20
57594;BME280;43423;46.510;6.686;2023-02-04T10:02:46;98035.78;;;7.34;75.80
57594;BME280;43423;46.510;6.686;2023-02-04T10:05:15;98032.88;;;7.64;76.16
57594;BME280;43423;46.510;6.686;2023-02-04T10:07:42;98034.56;;;7.78;74.68
57594;BME280;43423;46.510;6.686;2023-02-04T10:10:16;98026.91;;;8.09;75.35
57594;BME280;43423;46.510;6.686;2023-02-04T10:12:43;98027.44;;;8.40;75.28
57594;BME280;43423;46.510;6.686;2023-02-04T10:15:14;98021.06;;;8.79;74.25
57594;BME280;43423;46.510;6.686;2023-02-04T10:17:41;98032.78;;;9.12;71.66
57594;BME280;43423;46.510;6.686;2023-02-04T10:20:33;98032.34;;;9.14;70.46
57594;BME280;43423;46.510;6.686;2023-02-04T10:22:59;98030.22;;;9.05;69.64
57594;BME280;43423;46.510;6.686;2023-02-04T10:25:25;98037.09;;;8.97;68.61
57594;BME280;43423;46.510;6.686;2023-02-04T10:27:57;98039.63;;;8.55;69.92
57594;BME280;43423;46.510;6.686;2023-02-04T10:30:26;98037.13;;;8.25;70.64
57594;BME280;43423;46.510;6.686;2023-02-04T10:32:52;98038.34;;;8.04;71.60
57594;BME280;43423;46.510;6.686;2023-02-04T10:35:20;98028.31;;;7.97;72.65
57594;BME280;43423;46.510;6.686;2023-02-04T10:37:47;98031.50;;;7.76;72.81
57594;BME280;43423;46.510;6.686;2023-02-04T10:40:25;98032.69;;;7.75;73.12
57594;BME280;43423;46.510;6.686;2023-02-04T10:42:51;98017.44;;;7.94;72.97
57594;BME280;43423;46.510;6.686;2023-02-04T10:45:28;98027.41;;;8.04;72.62
57594;BME280;43423;46.510;6.686;2023-02-04T10:47:55;98031.00;;;8.01;70.85
57594;BME280;43423;46.510;6.686;2023-02-04T10:50:26;98015.75;;;8.00;71.49
57594;BME280;43423;46.510;6.686;2023-02-04T10:52:56;98013.50;;;8.15;71.67
57594;BME280;43423;46.510;6.686;2023-02-04T10:55:43;98011.72;;;8.24;70.14
57594;BME280;43423;46.510;6.686;2023-02-04T10:58:16;98012.53;;;8.41;68.74
57594;BME280;43423;46.510;6.686;2023-02-04T11:00:43;98010.69;;;8.54;67.76
57594;BME280;43423;46.510;6.686;2023-02-04T11:03:14;98003.13;;;8.75;67.28
57594;BME280;43423;46.510;6.686;2023-02-04T11:05:40;98002.63;;;8.63;66.71
57594;BME280;43423;46.510;6.686;2023-02-04T11:08:24;97998.84;;;8.57;66.61
57594;BME280;43423;46.510;6.686;2023-02-04T11:10:54;97994.84;;;8.78;67.22
57594;BME280;43423;46.510;6.686;2023-02-04T11:13:26;97991.00;;;9.21;67.46
57594;BME280;43423;46.510;6.686;2023-02-04T11:16:11;97983.66;;;9.47;66.97
57594;BME280;43423;46.510;6.686;2023-02-04T11:21:42;97993.56;;;10.28;64.67
57594;BME280;43423;46.510;6.686;2023-02-04T11:26:36;97985.84;;;10.61;62.99
57594;BME280;43423;46.510;6.686;2023-02-04T11:31:40;97980.31;;;11.21;63.67
57594;BME280;43423;46.510;6.686;2023-02-04T11:36:32;97978.78;;;11.55;61.13
57594;BME280;43423;46.510;6.686;2023-02-04T11:39:06;97980.13;;;11.72;60.68
57594;BME280;43423;46.510;6.686;2023-02-04T11:41:32;97988.19;;;12.10;60.19
57594;BME280;43423;46.510;6.686;2023-02-04T11:43:58;97992.06;;;12.22;59.04
57594;BME280;43423;46.510;6.686;2023-02-04T11:46:28;97993.19;;;12.24;58.96
57594;BME280;43423;46.510;6.686;2023-02-04T11:48:55;97997.97;;;12.33;59.25
57594;BME280;43423;46.510;6.686;2023-02-04T11:51:32;98002.81;;;12.60;57.51
57594;BME280;43423;46.510;6.686;2023-02-04T11:53:58;97997.97;;;12.33;57.96
57594;BME280;43423;46.510;6.686;2023-02-04T11:56:27;97990.22;;;12.19;57.80
57594;BME280;43423;46.510;6.686;2023-02-04T11:58:55;97986.78;;;11.84;58.41
57594;BME280;43423;46.510;6.686;2023-02-04T12:01:31;97987.97;;;11.61;58.67
57594;BME280;43423;46.510;6.686;2023-02-04T12:04:02;97987.59;;;11.50;59.24
57594;BME280;43423;46.510;6.686;2023-02-04T12:06:29;97989.78;;;11.20;59.19
57594;BME280;43423;46.510;6.686;2023-02-04T12:11:55;97984.88;;;11.02;61.06
57594;BME280;43423;46.510;6.686;2023-02-04T12:14:33;97974.16;;;10.70;61.38
57594;BME280;43423;46.510;6.686;2023-02-04T12:17:00;97969.53;;;10.79;61.00
57594;BME280;43423;46.510;6.686;2023-02-04T12:19:26;97970.75;;;11.13;61.38
57594;BME280;43423;46.510;6.686;2023-02-04T12:21:53;97976.50;;;11.06;61.21
57594;BME280;43423;46.510;6.686;2023-02-04T12:24:19;97965.19;;;11.04;61.36
57594;BME280;43423;46.510;6.686;2023-02-04T12:26:45;97968.25;;;11.06;61.00
57594;BME280;43423;46.510;6.686;2023-02-04T12:29:10;97970.00;;;11.12;60.88
57594;BME280;43423;46.510;6.686;2023-02-04T12:31:36;97969.56;;;10.67;60.60
57594;BME280;43423;46.510;6.686;2023-02-04T12:34:02;97969.00;;;10.72;61.85
57594;BME280;43423;46.510;6.686;2023-02-04T12:36:28;97971.63;;;10.75;61.79
57594;BME280;43423;46.510;6.686;2023-02-04T12:38:54;97975.13;;;10.88;61.18
57594;BME280;43423;46.510;6.686;2023-02-04T12:41:20;97969.75;;;10.85;61.41
57594;BME280;43423;46.510;6.686;2023-02-04T12:43:46;97965.09;;;10.95;61.46
57594;BME280;43423;46.510;6.686;2023-02-04T12:46:15;97961.16;;;10.83;61.04
57594;BME280;43423;46.510;6.686;2023-02-04T12:48:41;97957.75;;;10.79;61.26
57594;BME280;43423;46.510;6.686;2023-02-04T12:51:07;97958.53;;;10.79;62.36
57594;BME280;43423;46.510;6.686;2023-02-04T12:53:32;97955.53;;;10.86;61.57
57594;BME280;43423;46.510;6.686;2023-02-04T12:55:58;97955.22;;;10.84;62.32
57594;BME280;43423;46.510;6.686;2023-02-04T12:58:24;97950.41;;;10.63;61.86
57594;BME280;43423;46.510;6.686;2023-02-04T13:00:49;97947.34;;;10.48;62.30
57594;BME280;43423;46.510;6.686;2023-02-04T13:03:15;97948.00;;;10.40;62.64
57594;BME280;43423;46.510;6.686;2023-02-04T13:05:40;97940.88;;;10.29;62.83
57594;BME280;43423;46.510;6.686;2023-02-04T13:08:06;97946.16;;;10.37;62.66
57594;BME280;43423;46.510;6.686;2023-02-04T13:10:32;97953.19;;;10.25;63.59
57594;BME280;43423;46.510;6.686;2023-02-04T13:12:57;97945.38;;;10.23;63.52
57594;BME280;43423;46.510;6.686;2023-02-04T13:15:25;97943.72;;;10.39;63.03
57594;BME280;43423;46.510;6.686;2023-02-04T13:17:50;97930.84;;;10.23;63.80
57594;BME280;43423;46.510;6.686;2023-02-04T13:20:16;97936.00;;;10.33;63.49
57594;BME280;43423;46.510;6.686;2023-02-04T13:22:42;97932.19;;;10.31;63.89